createdAt,value
2018-01-30T00:00:59.200Z,96707
2018-01-30T00:06:27.388Z,96714
2018-01-30T00:11:56.348Z,96712
2018-01-30T00:17:25.519Z,96698
2018-01-30T00:22:53.700Z,96705
2018-01-30T00:28:21.904Z,96701
2018-01-30T00:33:50.844Z,96716
2018-01-30T00:39:20.172Z,96714
2018-01-30T00:44:48.338Z,96725
2018-01-30T00:50:16.551Z,96716
2018-01-30T00:55:44.749Z,96724
2018-01-30T01:01:12.950Z,96720
2018-01-30T01:06:41.182Z,96703
2018-01-30T01:12:09.355Z,96716
2018-01-30T01:17:38.573Z,96722
2018-01-30T01:23:07.540Z,96717
2018-01-30T01:28:35.718Z,96714
2018-01-30T01:34:04.676Z,96702
2018-01-30T01:39:33.830Z,96703
2018-01-30T01:45:02.006Z,96701
2018-01-30T01:50:30.191Z,96683
2018-01-30T01:55:59.305Z,96697
2018-01-30T02:01:27.481Z,96703
2018-01-30T02:06:55.690Z,96706
2018-01-30T02:12:23.867Z,96722
2018-01-30T02:17:52.059Z,96726
2018-01-30T02:23:20.227Z,96736
2018-01-30T02:28:48.415Z,96715
2018-01-30T02:34:17.358Z,96712
2018-01-30T02:39:46.341Z,96728
2018-01-30T02:45:14.542Z,96732
2018-01-30T02:50:42.766Z,96740
2018-01-30T02:56:10.962Z,96751
2018-01-30T03:01:39.178Z,96754
2018-01-30T03:07:08.295Z,96743
2018-01-30T03:12:36.465Z,96741
2018-01-30T03:18:04.675Z,96741
2018-01-30T03:23:32.873Z,96740
2018-01-30T03:29:04.051Z,96748
2018-01-30T03:34:32.221Z,96736
2018-01-30T03:40:00.415Z,96745
2018-01-30T03:45:29.967Z,96745
2018-01-30T03:50:58.905Z,96756
2018-01-30T03:56:27.856Z,96755
2018-01-30T04:01:56.020Z,96759
2018-01-30T04:07:24.230Z,96769
2018-01-30T04:12:52.402Z,96773
2018-01-30T04:18:21.350Z,96782
2018-01-30T04:23:50.744Z,96781
2018-01-30T04:29:19.176Z,96786
2018-01-30T04:34:47.356Z,96793
2018-01-30T04:40:15.548Z,96773
2018-01-30T04:45:43.740Z,96792
2018-01-30T04:51:12.744Z,96793
2018-01-30T04:56:40.968Z,96788
2018-01-30T05:02:09.157Z,96777
2018-01-30T05:07:38.162Z,96785
2018-01-30T05:13:06.350Z,96789
2018-01-30T05:18:34.544Z,96785
2018-01-30T05:24:02.735Z,96790
2018-01-30T05:29:33.397Z,96783
2018-01-30T05:35:01.605Z,96789
2018-01-30T05:40:29.849Z,96791
2018-01-30T05:45:58.051Z,96792
2018-01-30T05:51:26.252Z,96786
2018-01-30T05:56:56.429Z,96782
2018-01-30T06:02:24.626Z,96800
2018-01-30T06:07:52.842Z,96794
2018-01-30T06:13:21.082Z,96800
2018-01-30T06:18:49.241Z,96803
2018-01-30T06:24:17.428Z,96809
2018-01-30T06:29:45.609Z,96805
2018-01-30T06:35:14.583Z,96812
2018-01-30T06:40:42.773Z,96811
2018-01-30T06:46:11.768Z,96822
2018-01-30T06:51:39.961Z,96821
2018-01-30T06:57:08.522Z,96824
2018-01-30T07:02:36.757Z,96826
2018-01-30T07:08:04.947Z,96839
2018-01-30T07:13:33.151Z,96848
2018-01-30T07:19:01.364Z,96838
2018-01-30T07:24:29.541Z,96837
2018-01-30T07:29:58.488Z,96844
2018-01-30T07:35:27.444Z,96843
2018-01-30T07:40:55.641Z,96847
2018-01-30T07:46:23.818Z,96843
2018-01-30T07:51:51.993Z,96840
2018-01-30T07:57:20.934Z,96839
2018-01-30T08:02:49.875Z,96851
2018-01-30T08:08:18.843Z,96849
2018-01-30T08:13:47.029Z,96854
2018-01-30T08:19:15.989Z,96838
2018-01-30T08:24:44.173Z,96828
2018-01-30T08:30:12.374Z,96837
2018-01-30T08:35:40.559Z,96844
2018-01-30T08:41:08.785Z,96854
2018-01-30T08:46:36.966Z,96846
2018-01-30T08:52:05.921Z,96847
2018-01-30T08:57:34.101Z,96859
2018-01-30T09:03:02.295Z,96851
2018-01-30T09:08:32.503Z,96848
2018-01-30T09:14:00.673Z,96845
2018-01-30T09:19:28.859Z,96844
2018-01-30T09:24:57.821Z,96853
2018-01-30T09:30:26.002Z,96841
2018-01-30T09:35:54.191Z,96852
2018-01-30T09:41:22.364Z,96867
2018-01-30T09:46:51.324Z,96851
2018-01-30T09:52:19.514Z,96853
2018-01-30T09:57:47.704Z,96867
2018-01-30T10:03:15.891Z,96866
2018-01-30T10:08:44.090Z,96874
2018-01-30T10:14:13.055Z,96866
2018-01-30T10:19:41.252Z,96858
2018-01-30T10:25:10.206Z,96850
2018-01-30T10:30:38.400Z,96853
2018-01-30T10:36:08.306Z,96847
2018-01-30T10:41:36.515Z,96839
2018-01-30T10:47:05.470Z,96826
2018-01-30T10:52:33.637Z,96834
2018-01-30T10:58:02.670Z,96824
2018-01-30T11:03:31.641Z,96818
2018-01-30T11:08:59.823Z,96804
2018-01-30T11:14:28.038Z,96805
2018-01-30T11:19:57.004Z,96792
2018-01-30T11:25:25.212Z,96802
2018-01-30T11:30:54.187Z,96796
2018-01-30T11:36:22.383Z,96784
2018-01-30T11:41:51.336Z,96789
2018-01-30T11:47:19.528Z,96781
2018-01-30T11:52:48.465Z,96788
2018-01-30T11:58:16.655Z,96783
2018-01-30T12:03:44.872Z,96782
2018-01-30T12:09:13.074Z,96777
2018-01-30T12:14:41.289Z,96774
2018-01-30T12:20:09.491Z,96775
2018-01-30T12:25:37.681Z,96766
2018-01-30T12:31:05.858Z,96770
2018-01-30T12:36:34.050Z,96760
2018-01-30T12:42:03.011Z,96760
2018-01-30T12:47:31.957Z,96740
2018-01-30T12:53:00.177Z,96736
2018-01-30T12:58:28.375Z,96724
2018-01-30T13:03:56.576Z,96717
2018-01-30T13:09:25.535Z,96714
2018-01-30T13:14:53.731Z,96708
2018-01-30T13:20:22.684Z,96702
2018-01-30T13:25:51.626Z,96695
2018-01-30T13:31:19.804Z,96689
2018-01-30T13:36:48.768Z,96684
2018-01-30T13:42:17.705Z,96681
2018-01-30T13:47:46.663Z,96689
2018-01-30T13:53:14.932Z,96679
2018-01-30T13:58:43.156Z,96679
2018-01-30T14:04:11.349Z,96676
2018-01-30T14:09:39.551Z,96673
2018-01-30T14:15:07.754Z,96672
2018-01-30T14:20:35.947Z,96666
2018-01-30T14:26:04.170Z,96665
2018-01-30T14:31:32.342Z,96671
2018-01-30T14:37:05.595Z,96661
2018-01-30T14:42:33.830Z,96667
2018-01-30T14:48:02.080Z,96661
2018-01-30T14:53:30.276Z,96663
2018-01-30T14:58:58.445Z,96662
2018-01-30T15:04:27.392Z,96658
2018-01-30T15:09:55.638Z,96648
2018-01-30T15:15:23.814Z,96651
2018-01-30T15:20:52.761Z,96647
2018-01-30T15:26:21.714Z,96640
2018-01-30T15:31:49.892Z,96648
2018-01-30T15:37:18.068Z,96640
2018-01-30T15:42:46.255Z,96626
2018-01-30T15:48:15.200Z,96625
2018-01-30T15:53:44.192Z,96639
2018-01-30T15:59:12.380Z,96637
2018-01-30T16:04:40.601Z,96622
2018-01-30T16:10:08.797Z,96626
2018-01-30T16:15:37.044Z,96618
2018-01-30T16:21:05.229Z,96609
2018-01-30T16:26:33.616Z,96605
2018-01-30T16:32:01.801Z,96598
2018-01-30T16:37:30.763Z,96586
2018-01-30T16:42:58.943Z,96586
2018-01-30T16:48:27.987Z,96587
2018-01-30T16:53:56.943Z,96582
2018-01-30T16:59:25.936Z,96569
2018-01-30T17:04:54.117Z,96573
2018-01-30T17:10:23.065Z,96570
2018-01-30T17:15:51.332Z,96573
2018-01-30T17:21:19.542Z,96570
2018-01-30T17:26:47.743Z,96560
2018-01-30T17:32:20.256Z,96556
2018-01-30T17:37:48.433Z,96549
2018-01-30T17:43:16.624Z,96541
2018-01-30T17:48:48.333Z,96548
2018-01-30T17:54:16.509Z,96547
2018-01-30T17:59:46.615Z,96538
2018-01-30T18:05:14.847Z,96536
2018-01-30T18:10:43.076Z,96537
2018-01-30T18:16:11.296Z,96539
2018-01-30T18:21:39.546Z,96535
2018-01-30T18:27:13.136Z,96544
2018-01-30T18:32:41.333Z,96544
2018-01-30T18:38:10.288Z,96546
2018-01-30T18:43:38.584Z,96546
2018-01-30T18:49:07.536Z,96552
2018-01-30T18:54:35.737Z,96549
2018-01-30T19:00:03.918Z,96543
2018-01-30T19:05:32.114Z,96544
2018-01-30T19:11:00.327Z,96533
2018-01-30T19:16:28.557Z,96528
2018-01-30T19:21:56.797Z,96519
2018-01-30T19:27:32.243Z,96530
2018-01-30T19:33:01.455Z,96527
2018-01-30T19:38:29.764Z,96522
2018-01-30T19:43:58.008Z,96504
2018-01-30T19:49:27.149Z,96507
2018-01-30T19:54:57.087Z,96503
2018-01-30T20:00:25.302Z,96497
2018-01-30T20:05:56.926Z,96488
2018-01-30T20:11:25.141Z,96487
2018-01-30T20:16:55.286Z,96486
2018-01-30T20:22:24.489Z,96474
2018-01-30T20:27:53.451Z,96467
2018-01-30T20:33:21.661Z,96468
2018-01-30T20:38:49.837Z,96451
2018-01-30T20:44:18.031Z,96454
2018-01-30T20:49:46.237Z,96444
2018-01-30T20:55:14.449Z,96454
2018-01-30T21:00:43.440Z,96437
2018-01-30T21:06:13.628Z,96433
2018-01-30T21:11:42.884Z,96430
2018-01-30T21:17:18.089Z,96414
2018-01-30T21:22:46.260Z,96405
2018-01-30T21:28:14.455Z,96420
2018-01-30T21:33:42.648Z,96406
2018-01-30T21:39:18.029Z,96406
2018-01-30T21:44:53.207Z,96397
2018-01-30T21:50:27.536Z,96386
2018-01-30T21:55:59.728Z,96386
2018-01-30T22:01:27.928Z,96381
2018-01-30T22:06:56.128Z,96371
2018-01-30T22:12:26.052Z,96372
2018-01-30T22:17:54.250Z,96374
2018-01-30T22:23:22.451Z,96368
2018-01-30T22:28:56.505Z,96363
2018-01-30T22:34:25.431Z,96358
2018-01-30T22:39:57.901Z,96352
2018-01-30T22:45:26.117Z,96344
